createdAt,value
2019-04-28T00:01:07.570Z,67.05
2019-04-28T00:03:34.438Z,67.12
2019-04-28T00:06:01.449Z,67.16
2019-04-28T00:08:28.920Z,67.56
2019-04-28T00:10:56.564Z,67.41
2019-04-28T00:13:23.629Z,67.29
2019-04-28T00:15:51.652Z,67.40
2019-04-28T00:18:18.675Z,67.52
2019-04-28T00:20:53.058Z,67.50
2019-04-28T00:23:33.565Z,67.64
2019-04-28T00:26:02.467Z,67.80
2019-04-28T00:28:31.101Z,67.96
2019-04-28T00:30:58.875Z,67.73
2019-04-28T00:33:25.871Z,67.72
2019-04-28T00:35:52.928Z,67.63
2019-04-28T00:38:21.497Z,67.77
2019-04-28T00:40:48.521Z,68.19
2019-04-28T00:43:15.325Z,69.17
2019-04-28T00:45:42.405Z,70.61
2019-04-28T00:48:10.942Z,71.92
2019-04-28T00:50:38.266Z,71.98
2019-04-28T00:53:05.804Z,72.19
2019-04-28T00:55:32.654Z,72.57
2019-04-28T00:58:00.928Z,73.07
2019-04-28T01:00:31.348Z,72.93
2019-04-28T01:02:58.553Z,72.88
2019-04-28T01:05:25.964Z,73.70
2019-04-28T01:07:52.861Z,73.12
2019-04-28T01:10:21.680Z,73.15
2019-04-28T01:12:48.584Z,73.15
2019-04-28T01:15:20.097Z,72.94
2019-04-28T01:17:52.220Z,74.20
2019-04-28T01:20:23.991Z,73.94
2019-04-28T01:22:50.849Z,73.26
2019-04-28T01:25:17.922Z,71.23
2019-04-28T01:27:47.128Z,70.27
2019-04-28T01:30:16.651Z,69.63
2019-04-28T01:32:45.474Z,69.18
2019-04-28T01:35:12.466Z,68.60
2019-04-28T01:37:40.759Z,68.72
2019-04-28T01:40:09.509Z,68.80
2019-04-28T01:42:36.503Z,69.23
2019-04-28T01:45:05.574Z,68.91
2019-04-28T01:47:33.687Z,69.24
2019-04-28T01:50:01.996Z,68.86
2019-04-28T01:52:30.267Z,68.61
2019-04-28T01:54:57.296Z,68.62
2019-04-28T01:57:24.655Z,68.30
2019-04-28T01:59:51.505Z,68.71
2019-04-28T02:02:19.909Z,68.58
2019-04-28T02:04:47.354Z,68.55
2019-04-28T02:07:14.799Z,68.63
2019-04-28T02:09:41.869Z,68.70
2019-04-28T02:12:10.571Z,68.52
2019-04-28T02:14:37.685Z,68.15
2019-04-28T02:17:05.172Z,68.09
2019-04-28T02:19:33.176Z,67.92
2019-04-28T02:22:06.670Z,68.25
2019-04-28T02:24:35.429Z,68.00
2019-04-28T02:27:02.678Z,68.09
2019-04-28T02:29:30.333Z,67.93
2019-04-28T02:32:01.688Z,67.68
2019-04-28T02:34:30.769Z,67.56
2019-04-28T02:36:57.256Z,67.41
2019-04-28T02:39:24.337Z,67.34
2019-04-28T02:41:52.048Z,67.04
2019-04-28T02:44:23.007Z,67.13
2019-04-28T02:46:50.587Z,67.06
2019-04-28T02:49:20.318Z,67.19
2019-04-28T02:52:06.469Z,67.06
2019-04-28T02:54:34.507Z,66.90
2019-04-28T02:57:01.572Z,67.06
2019-04-28T02:59:30.448Z,67.05
2019-04-28T03:01:57.614Z,67.30
2019-04-28T03:04:24.647Z,67.60
2019-04-28T03:06:51.953Z,67.44
2019-04-28T03:09:20.372Z,67.60
2019-04-28T03:11:47.333Z,68.16
2019-04-28T03:14:14.707Z,68.70
2019-04-28T03:16:41.770Z,68.65
2019-04-28T03:19:10.917Z,68.51
2019-04-28T03:21:37.896Z,68.56
2019-04-28T03:24:04.786Z,68.55
2019-04-28T03:26:31.889Z,68.78
2019-04-28T03:29:06.237Z,69.88
2019-04-28T03:32:01.621Z,70.36
2019-04-28T03:34:04.367Z,70.36
2019-04-28T03:36:33.432Z,70.48
2019-04-28T03:39:00.847Z,70.88
2019-04-28T03:41:30.873Z,71.48
2019-04-28T03:43:56.580Z,71.81
2019-04-28T03:46:25.243Z,72.05
2019-04-28T03:48:52.177Z,72.53
2019-04-28T03:51:21.173Z,72.80
2019-04-28T03:53:50.564Z,72.93
2019-04-28T03:56:16.880Z,72.76
2019-04-28T03:58:44.122Z,72.70
2019-04-28T04:01:11.085Z,72.80
2019-04-28T04:03:38.360Z,72.90
2019-04-28T04:06:05.203Z,72.62
2019-04-28T04:08:31.975Z,72.54
2019-04-28T04:11:01.617Z,72.35
2019-04-28T04:13:33.411Z,72.44
2019-04-28T04:16:14.080Z,72.87
2019-04-28T04:18:40.983Z,73.21
2019-04-28T04:21:10.858Z,73.10
2019-04-28T04:23:36.889Z,73.19
2019-04-28T04:26:03.908Z,73.00
2019-04-28T04:28:30.770Z,72.84
2019-04-28T04:31:00.478Z,72.79
2019-04-28T04:33:26.412Z,73.23
2019-04-28T04:35:53.507Z,73.65
2019-04-28T04:38:21.795Z,73.65
2019-04-28T04:40:51.322Z,73.80
2019-04-28T04:43:21.059Z,73.64
2019-04-28T04:45:50.108Z,73.67
2019-04-28T04:48:16.049Z,73.42
2019-04-28T04:50:43.257Z,72.62
2019-04-28T04:53:11.056Z,72.44
2019-04-28T04:55:40.545Z,72.31
2019-04-28T04:58:06.921Z,72.53
2019-04-28T05:00:36.096Z,72.37
2019-04-28T05:03:10.929Z,72.35
2019-04-28T05:05:42.399Z,72.47
2019-04-28T05:08:10.706Z,72.62
2019-04-28T05:10:40.322Z,72.87
2019-04-28T05:13:07.046Z,73.00
2019-04-28T05:15:34.028Z,72.81
2019-04-28T05:18:01.636Z,72.68
2019-04-28T05:20:30.257Z,72.58
2019-04-28T05:23:00.679Z,72.49
2019-04-28T05:25:32.730Z,72.19
2019-04-28T05:28:02.890Z,72.29
2019-04-28T05:30:29.646Z,71.86
2019-04-28T05:32:57.456Z,71.97
2019-04-28T05:35:25.228Z,72.21
2019-04-28T05:37:52.238Z,72.00
2019-04-28T05:40:20.568Z,72.03
2019-04-28T05:43:00.914Z,71.97
2019-04-28T05:45:32.213Z,71.93
2019-04-28T05:47:59.579Z,71.63
2019-04-28T05:50:29.700Z,71.44
2019-04-28T05:53:00.383Z,71.39
2019-04-28T05:55:35.026Z,71.10
2019-04-28T05:58:15.805Z,71.17
2019-04-28T06:00:45.299Z,71.54
2019-04-28T06:03:24.977Z,71.53
2019-04-28T06:05:52.227Z,71.23
2019-04-28T06:08:37.917Z,70.79
2019-04-28T06:11:23.024Z,70.68
2019-04-28T06:13:52.448Z,70.02
2019-04-28T06:16:19.609Z,68.69
2019-04-28T06:18:49.996Z,67.73
2019-04-28T06:21:16.605Z,67.22
2019-04-28T06:23:43.535Z,67.01
2019-04-28T06:26:10.324Z,66.91
2019-04-28T06:28:37.259Z,66.74
2019-04-28T06:31:04.311Z,66.59
2019-04-28T06:33:31.576Z,66.79
2019-04-28T06:35:58.369Z,67.02
2019-04-28T06:38:25.115Z,66.74
2019-04-28T06:40:52.476Z,66.75
2019-04-28T06:43:20.066Z,66.58
2019-04-28T06:45:46.850Z,66.48
2019-04-28T06:48:13.972Z,66.59
2019-04-28T06:50:40.798Z,66.17
2019-04-28T06:53:07.578Z,66.21
2019-04-28T06:55:34.348Z,66.14
2019-04-28T06:58:01.506Z,65.98
2019-04-28T07:00:28.259Z,65.70
2019-04-28T07:02:55.115Z,65.16
2019-04-28T07:05:22.166Z,65.00
2019-04-28T07:07:49.329Z,64.69
2019-04-28T07:10:18.805Z,64.56
2019-04-28T07:12:45.600Z,64.85
2019-04-28T07:15:12.502Z,64.84
2019-04-28T07:17:39.356Z,64.39
2019-04-28T07:20:08.833Z,64.10
2019-04-28T07:22:35.672Z,63.60
2019-04-28T07:25:13.972Z,63.81
2019-04-28T07:27:40.868Z,63.68
2019-04-28T07:30:08.724Z,63.47
2019-04-28T07:32:36.491Z,63.21
2019-04-28T07:35:05.541Z,63.24
2019-04-28T07:37:32.396Z,63.29
2019-04-28T07:39:59.335Z,63.36
2019-04-28T07:42:26.153Z,63.18
2019-04-28T07:44:52.907Z,63.25
2019-04-28T07:47:20.228Z,62.67
2019-04-28T07:49:47.379Z,62.19
2019-04-28T07:52:18.939Z,62.16
2019-04-28T07:54:45.708Z,62.14
2019-04-28T07:57:12.584Z,61.99
2019-04-28T07:59:39.355Z,61.93
2019-04-28T08:02:06.230Z,61.35
2019-04-28T08:04:33.441Z,61.20
2019-04-28T08:07:00.574Z,61.33
2019-04-28T08:09:27.574Z,61.43
2019-04-28T08:11:54.354Z,61.47
2019-04-28T08:14:22.189Z,61.68
2019-04-28T08:16:49.447Z,61.85
2019-04-28T08:19:16.616Z,61.26
2019-04-28T08:21:43.370Z,59.89
2019-04-28T08:24:10.154Z,59.31
2019-04-28T08:26:38.330Z,57.61
2019-04-28T08:29:05.436Z,58.08
2019-04-28T08:31:34.334Z,58.51
2019-04-28T08:34:06.094Z,58.54
2019-04-28T08:36:33.110Z,58.04
2019-04-28T08:39:00.111Z,56.21
2019-04-28T08:41:27.017Z,54.79
2019-04-28T08:43:55.680Z,54.41
2019-04-28T08:46:22.852Z,54.01
2019-04-28T08:48:49.844Z,53.02
2019-04-28T08:51:17.279Z,52.49
2019-04-28T08:53:44.218Z,52.44
2019-04-28T08:56:11.378Z,52.04
2019-04-28T08:58:38.622Z,51.96
2019-04-28T09:01:06.287Z,52.39
2019-04-28T09:03:33.485Z,53.02
2019-04-28T09:06:01.467Z,53.27
2019-04-28T09:08:28.449Z,53.11
2019-04-28T09:10:57.551Z,52.96
2019-04-28T09:13:24.633Z,52.79
2019-04-28T09:15:51.499Z,51.26
2019-04-28T09:18:18.772Z,50.49
2019-04-28T09:20:45.539Z,51.00
2019-04-28T09:23:14.874Z,52.06
2019-04-28T09:25:43.879Z,53.61
2019-04-28T09:28:10.811Z,55.26
2019-04-28T09:30:37.953Z,55.66
2019-04-28T09:33:05.288Z,55.84
2019-04-28T09:35:32.213Z,55.65
2019-04-28T09:37:58.984Z,55.99
2019-04-28T09:40:25.789Z,56.96
2019-04-28T09:43:11.439Z,57.91
2019-04-28T09:45:46.464Z,59.07
2019-04-28T09:48:13.461Z,60.82
2019-04-28T09:50:40.770Z,61.80
2019-04-28T09:53:07.909Z,61.71
2019-04-28T09:55:34.942Z,61.56
2019-04-28T09:58:02.274Z,61.84
2019-04-28T10:00:29.103Z,61.63
2019-04-28T10:02:56.130Z,60.57
2019-04-28T10:05:23.458Z,59.44
2019-04-28T10:07:50.308Z,58.81
2019-04-28T10:10:17.929Z,58.63
2019-04-28T10:12:45.117Z,57.51
2019-04-28T10:15:15.422Z,56.53
2019-04-28T10:17:43.211Z,55.77
2019-04-28T10:20:12.644Z,55.66
2019-04-28T10:22:41.965Z,54.63
2019-04-28T10:25:09.686Z,53.34
2019-04-28T10:27:36.690Z,52.32
2019-04-28T10:30:07.967Z,49.62
2019-04-28T10:32:35.924Z,49.28
2019-04-28T10:35:05.380Z,49.32
2019-04-28T10:37:32.721Z,49.55
2019-04-28T10:40:04.790Z,49.49
2019-04-28T10:42:31.657Z,49.27
2019-04-28T10:44:59.530Z,49.02
2019-04-28T10:47:27.888Z,47.20
2019-04-28T10:49:56.267Z,46.04
2019-04-28T10:52:24.969Z,44.72
2019-04-28T10:54:52.422Z,44.04
2019-04-28T10:57:19.300Z,43.33
2019-04-28T10:59:47.233Z,44.87
2019-04-28T11:02:14.215Z,46.25
2019-04-28T11:04:53.312Z,47.85
2019-04-28T11:07:20.972Z,49.03
2019-04-28T11:09:50.640Z,50.54
2019-04-28T11:12:19.503Z,51.05
2019-04-28T11:14:48.160Z,50.08
2019-04-28T11:17:15.999Z,49.33
2019-04-28T11:19:42.877Z,47.84
2019-04-28T11:22:10.614Z,47.42
2019-04-28T11:24:37.759Z,47.79
2019-04-28T11:27:05.680Z,48.75
2019-04-28T11:29:33.272Z,49.03
2019-04-28T11:32:02.035Z,47.99
2019-04-28T11:34:41.277Z,46.65
2019-04-28T11:37:10.405Z,45.92
2019-04-28T11:39:43.289Z,45.82
2019-04-28T11:42:11.356Z,46.45
2019-04-28T11:44:38.858Z,46.98
2019-04-28T11:47:09.237Z,47.15
2019-04-28T11:49:37.309Z,47.91
2019-04-28T11:52:06.970Z,47.83
2019-04-28T11:54:33.903Z,47.77
2019-04-28T11:57:01.011Z,47.51
2019-04-28T11:59:28.215Z,48.10
2019-04-28T12:01:56.245Z,48.07
2019-04-28T12:04:23.662Z,47.78
2019-04-28T12:06:50.536Z,47.80
2019-04-28T12:09:22.073Z,47.42
2019-04-28T12:11:54.422Z,47.25
2019-04-28T12:14:36.933Z,46.95
2019-04-28T12:17:10.884Z,46.37
2019-04-28T12:19:40.511Z,46.04
2019-04-28T12:22:07.653Z,45.40
2019-04-28T12:24:34.543Z,44.63
2019-04-28T12:27:01.923Z,43.56
2019-04-28T12:29:28.838Z,42.65
2019-04-28T12:31:55.685Z,41.32
2019-04-28T12:34:22.564Z,37.06
2019-04-28T12:36:49.363Z,34.67
2019-04-28T12:39:16.906Z,33.32
2019-04-28T12:41:43.848Z,32.42
2019-04-28T12:44:10.668Z,33.88
2019-04-28T12:46:37.744Z,34.25
2019-04-28T12:49:07.545Z,33.29
2019-04-28T12:51:34.402Z,33.02
2019-04-28T12:54:03.101Z,32.72
2019-04-28T12:56:30.732Z,32.86
2019-04-28T12:59:01.340Z,32.29
2019-04-28T13:01:30.241Z,31.68
2019-04-28T13:04:02.803Z,31.44
2019-04-28T13:06:29.999Z,31.06
2019-04-28T13:08:57.177Z,30.70
2019-04-28T13:11:24.159Z,30.28
2019-04-28T13:13:51.076Z,30.14
2019-04-28T13:16:18.068Z,31.38
2019-04-28T13:18:45.300Z,32.97
2019-04-28T13:21:12.327Z,36.22
2019-04-28T13:23:39.227Z,34.87
2019-04-28T13:26:06.229Z,32.85
2019-04-28T13:28:33.010Z,35.05
2019-04-28T13:30:59.905Z,32.72
2019-04-28T13:33:26.701Z,31.10
2019-04-28T13:35:53.537Z,29.51
2019-04-28T13:38:20.368Z,29.17
2019-04-28T13:40:47.106Z,28.59
2019-04-28T13:43:13.956Z,28.52
2019-04-28T13:45:40.933Z,28.69
2019-04-28T13:48:07.935Z,30.55
2019-04-28T13:50:36.507Z,32.75
2019-04-28T13:53:05.219Z,34.06
2019-04-28T13:55:32.324Z,34.64
2019-04-28T13:58:01.328Z,35.41
2019-04-28T14:00:33.193Z,33.51
2019-04-28T14:03:02.334Z,34.48
2019-04-28T14:05:32.902Z,35.25
2019-04-28T14:07:59.868Z,33.41
2019-04-28T14:10:26.997Z,32.10
2019-04-28T14:12:53.887Z,32.68
2019-04-28T14:15:21.234Z,34.95
2019-04-28T14:17:48.219Z,36.25
2019-04-28T14:20:15.715Z,37.24
2019-04-28T14:22:43.146Z,37.21
2019-04-28T14:25:10.580Z,34.29
2019-04-28T14:27:37.472Z,32.13
2019-04-28T14:30:06.661Z,31.51
2019-04-28T14:32:34.085Z,31.43
2019-04-28T14:35:01.275Z,31.33
2019-04-28T14:37:28.172Z,30.67
2019-04-28T14:39:55.828Z,30.16
2019-04-28T14:42:22.643Z,30.08
2019-04-28T14:44:50.008Z,30.30
2019-04-28T14:47:16.860Z,30.72
2019-04-28T14:49:44.249Z,30.86
2019-04-28T14:52:11.690Z,31.12
2019-04-28T14:54:38.529Z,30.98
2019-04-28T14:57:05.646Z,31.07
2019-04-28T14:59:32.555Z,30.97
2019-04-28T15:02:19.509Z,31.11
2019-04-28T15:05:02.027Z,31.34
2019-04-28T15:07:48.690Z,31.36
2019-04-28T15:10:29.913Z,31.65
2019-04-28T15:12:57.159Z,31.54
2019-04-28T15:15:24.084Z,31.71
2019-04-28T15:17:50.938Z,31.31
2019-04-28T15:20:20.355Z,31.60
2019-04-28T15:22:47.241Z,31.03
2019-04-28T15:25:16.796Z,32.23
2019-04-28T15:27:43.543Z,33.38
2019-04-28T15:30:11.271Z,34.32
2019-04-28T15:32:38.058Z,34.92
2019-04-28T15:35:05.571Z,35.25
2019-04-28T15:37:32.488Z,35.04
2019-04-28T15:40:00.304Z,34.92
2019-04-28T15:42:27.536Z,35.01
2019-04-28T15:44:54.578Z,35.42
2019-04-28T15:47:21.334Z,35.68
2019-04-28T15:49:48.152Z,36.01
2019-04-28T15:52:15.281Z,36.21
2019-04-28T15:54:42.428Z,36.38
2019-04-28T15:57:09.354Z,36.50
2019-04-28T15:59:36.756Z,36.77
2019-04-28T16:02:04.351Z,37.06
2019-04-28T16:04:31.409Z,37.46
2019-04-28T16:06:58.187Z,37.77
2019-04-28T16:09:25.603Z,37.30
2019-04-28T16:11:52.433Z,37.12
2019-04-28T16:14:19.293Z,37.15
2019-04-28T16:16:46.163Z,37.32
2019-04-28T16:19:15.327Z,37.55
2019-04-28T16:21:42.110Z,37.92
2019-04-28T16:24:09.046Z,37.83
2019-04-28T16:26:36.065Z,37.97
2019-04-28T16:29:03.701Z,37.92
2019-04-28T16:31:30.482Z,37.86
2019-04-28T16:33:57.288Z,38.16
2019-04-28T16:36:24.228Z,38.34
2019-04-28T16:38:50.968Z,38.86
2019-04-28T16:41:18.173Z,40.08
2019-04-28T16:43:47.615Z,40.71
2019-04-28T16:46:15.316Z,41.10
2019-04-28T16:48:42.123Z,41.57
2019-04-28T16:51:09.144Z,41.70
2019-04-28T16:53:36.052Z,42.16
2019-04-28T16:56:08.221Z,42.66
2019-04-28T16:58:37.298Z,43.64
2019-04-28T17:01:10.363Z,44.39
2019-04-28T17:03:38.096Z,44.72
2019-04-28T17:06:05.210Z,47.13
2019-04-28T17:08:34.820Z,45.37
2019-04-28T17:11:02.583Z,45.99
2019-04-28T17:13:29.660Z,46.72
2019-04-28T17:15:56.790Z,47.32
2019-04-28T17:18:23.940Z,48.14
2019-04-28T17:20:54.150Z,48.26
2019-04-28T17:23:19.879Z,48.95
2019-04-28T17:25:47.193Z,49.40
2019-04-28T17:28:14.162Z,49.26
2019-04-28T17:30:41.014Z,49.76
2019-04-28T17:33:07.865Z,50.33
2019-04-28T17:35:35.074Z,50.35
2019-04-28T17:38:06.888Z,50.13
2019-04-28T17:40:31.592Z,50.86
2019-04-28T17:42:58.391Z,50.82
2019-04-28T17:45:25.375Z,50.61
2019-04-28T17:47:54.654Z,50.43
2019-04-28T17:50:23.471Z,50.30
2019-04-28T17:52:50.284Z,50.60
2019-04-28T17:55:17.753Z,50.78
2019-04-28T17:57:44.652Z,50.96
2019-04-28T18:00:26.021Z,51.06
2019-04-28T18:03:11.431Z,51.35
2019-04-28T18:05:45.991Z,51.57
2019-04-28T18:08:20.781Z,51.69
2019-04-28T18:10:41.867Z,51.50
2019-04-28T18:13:09.042Z,51.70
2019-04-28T18:15:44.808Z,51.83
2019-04-28T18:18:16.363Z,52.04
2019-04-28T18:20:43.128Z,52.16
2019-04-28T18:23:09.914Z,52.06
2019-04-28T18:25:39.001Z,52.21
2019-04-28T18:28:05.762Z,52.75
2019-04-28T18:30:34.704Z,52.81
2019-04-28T18:33:03.381Z,52.70
2019-04-28T18:35:32.838Z,53.03
2019-04-28T18:38:01.641Z,53.20
2019-04-28T18:40:37.817Z,53.31
2019-04-28T18:43:21.721Z,53.44
2019-04-28T18:45:48.895Z,53.88
2019-04-28T18:48:15.783Z,53.69
2019-04-28T18:50:42.966Z,54.06
2019-04-28T18:53:10.156Z,54.13
2019-04-28T18:55:36.942Z,54.28
2019-04-28T18:58:03.851Z,54.79
2019-04-28T19:00:33.070Z,54.77
2019-04-28T19:02:59.847Z,54.91
2019-04-28T19:05:28.732Z,55.01
2019-04-28T19:07:59.143Z,55.52
2019-04-28T19:10:32.238Z,55.89
2019-04-28T19:13:01.303Z,56.16
2019-04-28T19:15:28.155Z,56.49
2019-04-28T19:17:57.018Z,57.26
2019-04-28T19:20:24.389Z,58.03
2019-04-28T19:22:51.161Z,58.22
2019-04-28T19:25:17.941Z,58.50
2019-04-28T19:27:45.092Z,59.08
2019-04-28T19:30:12.348Z,59.65
2019-04-28T19:32:39.463Z,60.81
2019-04-28T19:35:09.424Z,61.92
2019-04-28T19:37:36.334Z,62.19
2019-04-28T19:40:06.834Z,61.76
2019-04-28T19:42:33.582Z,62.27
2019-04-28T19:45:00.706Z,62.77
2019-04-28T19:47:27.863Z,63.01
2019-04-28T19:49:54.620Z,62.48
2019-04-28T19:52:21.365Z,61.92
2019-04-28T19:55:05.057Z,61.51
2019-04-28T19:57:34.116Z,61.41
2019-04-28T20:00:02.810Z,62.09
2019-04-28T20:02:31.816Z,62.64
2019-04-28T20:04:58.820Z,62.75
2019-04-28T20:07:26.014Z,62.48
2019-04-28T20:09:52.787Z,62.36
2019-04-28T20:12:19.652Z,62.92
2019-04-28T20:14:48.580Z,63.83
2019-04-28T20:17:15.612Z,64.24
2019-04-28T20:19:42.403Z,64.17
2019-04-28T20:22:09.270Z,64.79
2019-04-28T20:24:46.654Z,64.94
2019-04-28T20:27:05.655Z,64.49
2019-04-28T20:29:32.427Z,64.43
2019-04-28T20:32:02.112Z,64.50
2019-04-28T20:34:29.277Z,64.21
2019-04-28T20:37:01.447Z,63.99
2019-04-28T20:39:30.674Z,63.79
2019-04-28T20:41:59.734Z,64.20
2019-04-28T20:44:26.534Z,64.68
2019-04-28T20:46:53.442Z,65.15
2019-04-28T20:49:21.091Z,65.35
2019-04-28T20:51:48.424Z,65.67
2019-04-28T20:54:16.047Z,65.93
2019-04-28T20:56:42.984Z,65.96
2019-04-28T20:59:09.792Z,65.41
2019-04-28T21:01:36.731Z,65.31
2019-04-28T21:04:03.714Z,66.60
2019-04-28T21:06:30.885Z,66.28
2019-04-28T21:08:58.196Z,65.81
2019-04-28T21:11:25.376Z,65.67
2019-04-28T21:13:52.128Z,65.17
2019-04-28T21:16:18.914Z,65.26
2019-04-28T21:18:45.654Z,66.47
2019-04-28T21:21:12.435Z,66.89
2019-04-28T21:23:40.121Z,67.08
2019-04-28T21:26:07.277Z,67.05
2019-04-28T21:28:34.455Z,67.15
2019-04-28T21:31:01.280Z,67.82
2019-04-28T21:33:28.358Z,68.10
2019-04-28T21:35:55.121Z,67.57
2019-04-28T21:38:21.877Z,67.40
2019-04-28T21:40:48.672Z,68.93
2019-04-28T21:43:32.810Z,69.26
2019-04-28T21:46:01.968Z,69.11
2019-04-28T21:48:33.608Z,68.66
2019-04-28T21:51:00.598Z,68.18
2019-04-28T21:53:27.351Z,67.87
2019-04-28T21:55:54.115Z,68.90
2019-04-28T21:58:32.572Z,69.38
2019-04-28T22:00:56.697Z,68.30
2019-04-28T22:03:23.975Z,67.29
2019-04-28T22:05:50.858Z,68.42
2019-04-28T22:08:20.704Z,69.13
2019-04-28T22:10:48.101Z,69.11
2019-04-28T22:13:14.912Z,68.94
2019-04-28T22:15:42.182Z,69.74
2019-04-28T22:18:09.395Z,69.25
2019-04-28T22:20:39.307Z,70.19
2019-04-28T22:23:18.272Z,70.36
2019-04-28T22:25:36.648Z,70.87
2019-04-28T22:28:03.877Z,70.89
2019-04-28T22:30:30.718Z,71.37
2019-04-28T22:32:57.678Z,70.96
2019-04-28T22:35:24.489Z,69.90
2019-04-28T22:37:51.787Z,69.27
2019-04-28T22:40:18.593Z,68.83
2019-04-28T22:42:45.390Z,69.54
2019-04-28T22:45:13.360Z,70.45
2019-04-28T22:47:40.671Z,70.49
2019-04-28T22:50:38.384Z,70.82
2019-04-28T22:53:05.936Z,70.10
2019-04-28T22:55:34.829Z,70.68
2019-04-28T22:58:01.731Z,69.96
2019-04-28T23:00:33.750Z,69.56
2019-04-28T23:03:00.700Z,69.73
2019-04-28T23:05:28.090Z,68.99
2019-04-28T23:07:55.135Z,68.97
2019-04-28T23:10:22.651Z,69.30
2019-04-28T23:12:49.593Z,69.78
2019-04-28T23:15:16.988Z,70.14
2019-04-28T23:17:44.317Z,70.28
2019-04-28T23:20:12.073Z,70.21
2019-04-28T23:22:47.110Z,69.73
2019-04-28T23:25:13.291Z,70.27
2019-04-28T23:27:40.223Z,70.62
2019-04-28T23:30:08.788Z,70.40
2019-04-28T23:32:35.815Z,70.60
2019-04-28T23:35:04.687Z,70.61
2019-04-28T23:37:31.595Z,71.25
2019-04-28T23:39:58.393Z,70.98
2019-04-28T23:42:45.191Z,70.76
2019-04-28T23:45:12.870Z,70.08
2019-04-28T23:47:39.670Z,70.02
2019-04-28T23:50:08.952Z,70.47
2019-04-28T23:52:37.796Z,70.11
2019-04-28T23:55:07.490Z,70.09
2019-04-28T23:57:34.852Z,69.82
